createdAt,value
2018-02-12T00:02:16.407Z,4.30
2018-02-12T00:04:44.304Z,4.40
2018-02-12T00:07:12.242Z,4.40
2018-02-12T00:09:40.113Z,4.30
2018-02-12T00:12:08.096Z,4.30
2018-02-12T00:14:36.060Z,4.30
2018-02-12T00:17:03.947Z,4.30
2018-02-12T00:19:31.863Z,4.20
2018-02-12T00:21:59.826Z,4.20
2018-02-12T00:24:27.726Z,4.20
2018-02-12T00:26:56.465Z,4.20
2018-02-12T00:29:25.111Z,4.20
2018-02-12T00:31:53.089Z,4.10
2018-02-12T00:34:20.959Z,4.20
2018-02-12T00:36:48.871Z,4.10
2018-02-12T00:39:16.782Z,4.10
2018-02-12T00:41:44.688Z,4.10
2018-02-12T00:44:13.349Z,4.10
2018-02-12T00:46:41.227Z,4.10
2018-02-12T00:49:09.894Z,4.10
2018-02-12T00:51:37.858Z,4.10
2018-02-12T00:54:05.826Z,4.10
2018-02-12T00:56:33.758Z,4.10
2018-02-12T00:59:01.644Z,4.10
2018-02-12T01:01:29.626Z,4.10
2018-02-12T01:03:57.595Z,4.10
2018-02-12T01:06:25.514Z,4.10
2018-02-12T01:08:53.406Z,4.10
2018-02-12T01:11:21.298Z,4.10
2018-02-12T01:13:49.275Z,4.10
2018-02-12T01:16:17.201Z,4.10
2018-02-12T01:18:45.132Z,4.00
2018-02-12T01:21:13.881Z,4.00
2018-02-12T01:23:41.831Z,4.00
2018-02-12T01:26:09.716Z,4.00
2018-02-12T01:28:37.606Z,4.00
2018-02-12T01:31:05.567Z,4.00
2018-02-12T01:33:33.451Z,4.00
2018-02-12T01:36:02.186Z,4.00
2018-02-12T01:38:30.074Z,4.00
2018-02-12T01:40:58.048Z,4.00
2018-02-12T01:43:25.977Z,4.00
2018-02-12T01:45:53.958Z,4.10
2018-02-12T01:48:21.919Z,4.10
2018-02-12T01:50:49.891Z,4.10
2018-02-12T01:53:17.842Z,4.10
2018-02-12T01:55:45.791Z,4.20
2018-02-12T01:58:14.406Z,4.20
2018-02-12T02:00:42.288Z,4.20
2018-02-12T02:03:10.246Z,4.30
2018-02-12T02:05:38.160Z,4.30
2018-02-12T02:08:06.112Z,4.30
2018-02-12T02:10:34.013Z,4.40
2018-02-12T02:13:02.760Z,4.40
2018-02-12T02:15:30.688Z,4.30
2018-02-12T02:17:58.578Z,4.40
2018-02-12T02:20:26.470Z,4.40
2018-02-12T02:22:54.403Z,4.40
2018-02-12T02:25:22.292Z,4.40
2018-02-12T02:27:50.253Z,4.50
2018-02-12T02:30:18.238Z,4.50
2018-02-12T02:32:46.117Z,4.50
2018-02-12T02:35:14.007Z,4.50
2018-02-12T02:37:42.656Z,4.60
2018-02-12T02:40:10.654Z,4.50
2018-02-12T02:42:39.303Z,4.70
2018-02-12T02:45:07.199Z,4.70
2018-02-12T02:47:35.187Z,4.80
2018-02-12T02:50:03.903Z,4.90
2018-02-12T02:52:31.930Z,4.80
2018-02-12T02:55:00.669Z,4.90
2018-02-12T02:57:28.530Z,4.90
2018-02-12T02:59:56.433Z,4.90
2018-02-12T03:02:24.383Z,4.90
2018-02-12T03:04:52.281Z,5.00
2018-02-12T03:07:21.007Z,5.00
2018-02-12T03:09:48.909Z,5.00
2018-02-12T03:12:16.803Z,5.00
2018-02-12T03:14:45.434Z,5.00
2018-02-12T03:17:13.394Z,5.00
2018-02-12T03:19:41.274Z,5.00
2018-02-12T03:22:09.200Z,5.00
2018-02-12T03:24:37.942Z,5.10
2018-02-12T03:27:05.846Z,5.00
2018-02-12T03:29:34.562Z,5.10
2018-02-12T03:32:02.543Z,5.10
2018-02-12T03:34:30.422Z,5.10
2018-02-12T03:36:58.335Z,5.10
2018-02-12T03:39:26.954Z,5.10
2018-02-12T03:41:54.841Z,5.10
2018-02-12T03:44:22.719Z,5.10
2018-02-12T03:46:51.449Z,5.10
2018-02-12T03:49:20.195Z,5.10
2018-02-12T03:51:48.201Z,5.10
2018-02-12T03:54:16.922Z,5.10
2018-02-12T03:56:44.878Z,5.10
2018-02-12T03:59:12.742Z,5.10
2018-02-12T04:01:40.624Z,5.10
2018-02-12T04:04:08.487Z,5.10
2018-02-12T04:06:36.428Z,5.10
2018-02-12T04:09:05.152Z,5.10
2018-02-12T04:11:33.153Z,5.10
2018-02-12T04:14:01.102Z,5.10
2018-02-12T04:16:29.826Z,5.10
2018-02-12T04:18:58.546Z,5.10
2018-02-12T04:21:26.434Z,5.10
2018-02-12T04:23:54.359Z,5.10
2018-02-12T04:26:23.055Z,5.10
2018-02-12T04:28:50.991Z,5.10
2018-02-12T04:31:18.931Z,5.00
2018-02-12T04:33:46.890Z,5.10
2018-02-12T04:36:14.778Z,5.00
2018-02-12T04:38:42.754Z,5.00
2018-02-12T04:41:10.638Z,5.00
2018-02-12T04:43:39.308Z,5.00
2018-02-12T04:46:07.303Z,5.00
2018-02-12T04:48:35.987Z,4.90
2018-02-12T04:51:04.663Z,4.90
2018-02-12T04:53:33.292Z,4.90
2018-02-12T04:56:01.184Z,4.90
2018-02-12T04:58:29.059Z,4.90
2018-02-12T05:00:57.035Z,4.80
2018-02-12T05:03:24.945Z,4.80
2018-02-12T05:05:52.922Z,4.80
2018-02-12T05:08:20.805Z,4.80
2018-02-12T05:10:49.524Z,4.80
2018-02-12T05:13:17.422Z,4.80
2018-02-12T05:15:46.162Z,4.80
2018-02-12T05:18:14.130Z,4.70
2018-02-12T05:20:42.790Z,4.80
2018-02-12T05:23:10.727Z,4.80
2018-02-12T05:25:39.388Z,4.70
2018-02-12T05:28:07.344Z,4.70
2018-02-12T05:30:35.320Z,4.70
2018-02-12T05:33:03.251Z,4.70
2018-02-12T05:35:31.239Z,4.70
2018-02-12T05:37:59.110Z,4.60
2018-02-12T05:40:27.017Z,4.60
2018-02-12T05:42:55.742Z,4.60
2018-02-12T05:45:23.634Z,4.60
2018-02-12T05:47:51.544Z,4.60
2018-02-12T05:50:20.212Z,4.50
2018-02-12T05:52:48.868Z,4.50
2018-02-12T05:55:16.746Z,4.50
2018-02-12T05:57:44.712Z,4.50
2018-02-12T06:00:12.663Z,4.40
2018-02-12T06:02:40.657Z,4.40
2018-02-12T06:05:08.623Z,4.50
2018-02-12T06:07:36.586Z,4.50
2018-02-12T06:10:04.491Z,4.40
2018-02-12T06:12:32.406Z,4.40
2018-02-12T06:15:00.283Z,4.40
2018-02-12T06:17:28.235Z,4.40
2018-02-12T06:19:56.103Z,4.40
2018-02-12T06:22:23.972Z,4.40
2018-02-12T06:24:51.930Z,4.40
2018-02-12T06:27:19.825Z,4.40
2018-02-12T06:29:47.713Z,4.40
2018-02-12T06:32:16.335Z,4.40
2018-02-12T06:34:44.260Z,4.40
2018-02-12T06:37:12.929Z,4.40
2018-02-12T06:39:40.805Z,4.40
2018-02-12T06:42:08.725Z,4.40
2018-02-12T06:44:36.594Z,4.40
2018-02-12T06:47:04.593Z,4.40
2018-02-12T06:49:32.546Z,4.40
2018-02-12T06:52:01.215Z,4.50
2018-02-12T06:54:29.186Z,4.40
2018-02-12T06:56:57.076Z,4.50
2018-02-12T06:59:24.994Z,4.40
2018-02-12T07:01:52.876Z,4.40
2018-02-12T07:04:20.846Z,4.30
2018-02-12T07:06:48.769Z,4.30
2018-02-12T07:09:16.670Z,4.30
2018-02-12T07:11:44.585Z,4.20
2018-02-12T07:14:12.551Z,4.20
2018-02-12T07:16:40.511Z,4.20
2018-02-12T07:19:08.407Z,4.20
2018-02-12T07:21:36.305Z,4.20
2018-02-12T07:24:04.236Z,4.20
2018-02-12T07:26:32.141Z,4.20
2018-02-12T07:29:00.040Z,4.20
2018-02-12T07:31:27.995Z,4.20
2018-02-12T07:33:55.893Z,4.20
2018-02-12T07:36:23.784Z,4.20
2018-02-12T07:38:52.425Z,4.20
2018-02-12T07:41:20.333Z,4.20
2018-02-12T07:43:49.093Z,4.20
2018-02-12T07:46:17.739Z,4.20
2018-02-12T07:48:45.623Z,4.20
2018-02-12T07:51:13.537Z,4.20
2018-02-12T07:53:41.496Z,4.20
2018-02-12T07:56:09.392Z,4.20
2018-02-12T07:58:38.124Z,4.20
2018-02-12T08:01:06.022Z,4.20
2018-02-12T08:03:33.883Z,4.20
2018-02-12T08:06:01.810Z,4.20
2018-02-12T08:08:29.683Z,4.20
2018-02-12T08:10:57.582Z,4.20
2018-02-12T08:13:25.556Z,4.20
2018-02-12T08:15:53.416Z,4.20
2018-02-12T08:18:21.380Z,4.20
2018-02-12T08:20:49.243Z,4.20
2018-02-12T08:23:17.195Z,4.10
2018-02-12T08:25:45.138Z,4.10
2018-02-12T08:28:13.098Z,4.10
2018-02-12T08:30:40.970Z,4.10
2018-02-12T08:33:08.903Z,4.10
2018-02-12T08:35:37.679Z,4.10
2018-02-12T08:38:05.562Z,4.10
2018-02-12T08:40:34.286Z,4.10
2018-02-12T08:43:02.178Z,4.10
2018-02-12T08:45:30.052Z,4.00
2018-02-12T08:47:57.952Z,4.10
2018-02-12T08:50:26.637Z,4.10
2018-02-12T08:52:55.352Z,4.10
2018-02-12T08:55:23.258Z,4.10
2018-02-12T08:57:51.194Z,4.20
2018-02-12T09:00:19.359Z,4.20
2018-02-12T09:02:47.285Z,4.20
2018-02-12T09:05:15.285Z,4.30
2018-02-12T09:07:43.273Z,4.30
2018-02-12T09:10:11.250Z,4.30
2018-02-12T09:12:39.137Z,4.30
2018-02-12T09:15:07.083Z,4.30
2018-02-12T09:17:34.961Z,4.30
2018-02-12T09:20:02.910Z,4.30
2018-02-12T09:22:30.833Z,4.30
2018-02-12T09:24:58.726Z,4.30
2018-02-12T09:27:26.627Z,4.40
2018-02-12T09:29:54.509Z,4.40
2018-02-12T09:32:22.482Z,4.40
2018-02-12T09:34:50.382Z,4.30
2018-02-12T09:37:19.023Z,4.30
2018-02-12T09:39:46.878Z,4.30
2018-02-12T09:42:14.755Z,4.30
2018-02-12T09:44:42.659Z,4.30
2018-02-12T09:47:11.422Z,4.30
2018-02-12T09:49:39.400Z,4.30
2018-02-12T09:52:07.267Z,4.40
2018-02-12T09:54:35.187Z,4.30
2018-02-12T09:57:03.152Z,4.30
2018-02-12T09:59:31.089Z,4.30
2018-02-12T10:01:59.726Z,4.30
2018-02-12T10:04:27.708Z,4.20
2018-02-12T10:06:55.623Z,4.30
2018-02-12T10:09:24.259Z,4.30
2018-02-12T10:11:52.129Z,4.30
2018-02-12T10:14:20.042Z,4.30
2018-02-12T10:16:48.670Z,4.40
2018-02-12T10:19:16.554Z,4.30
2018-02-12T10:21:44.436Z,4.40
2018-02-12T10:24:12.322Z,4.40
2018-02-12T10:26:41.000Z,4.50
2018-02-12T10:29:09.626Z,4.50
2018-02-12T10:31:37.492Z,4.50
2018-02-12T10:34:05.368Z,4.40
2018-02-12T10:36:33.255Z,4.50
2018-02-12T10:39:01.250Z,4.50
2018-02-12T10:41:29.924Z,4.60
2018-02-12T10:43:57.783Z,4.60
2018-02-12T10:46:25.735Z,4.60
2018-02-12T10:48:54.469Z,4.60
2018-02-12T10:51:23.162Z,4.70
2018-02-12T10:53:51.066Z,4.60
2018-02-12T10:56:18.995Z,4.70
2018-02-12T10:58:46.871Z,4.60
2018-02-12T11:01:14.836Z,4.70
2018-02-12T11:03:42.786Z,4.70
2018-02-12T11:06:11.516Z,4.70
2018-02-12T11:08:39.378Z,4.70
2018-02-12T11:11:07.322Z,4.60
2018-02-12T11:13:35.231Z,4.60
2018-02-12T11:16:03.104Z,4.70
2018-02-12T11:18:31.013Z,4.60
2018-02-12T11:20:59.769Z,4.60
2018-02-12T11:23:27.654Z,4.60
2018-02-12T11:25:56.355Z,4.60
2018-02-12T11:28:25.000Z,4.60
2018-02-12T11:30:52.916Z,4.60
2018-02-12T11:33:20.787Z,4.60
2018-02-12T11:35:48.680Z,4.60
2018-02-12T11:38:16.640Z,4.60
2018-02-12T11:40:44.607Z,4.60
2018-02-12T11:43:12.579Z,4.60
2018-02-12T11:45:40.467Z,4.60
2018-02-12T11:48:08.448Z,4.50
2018-02-12T11:50:36.420Z,4.50
2018-02-12T11:53:04.298Z,4.40
2018-02-12T11:55:32.204Z,4.40
2018-02-12T11:58:00.158Z,4.50
2018-02-12T12:00:28.139Z,4.50
2018-02-12T12:02:56.111Z,4.50
2018-02-12T12:05:24.072Z,4.50
2018-02-12T12:07:51.979Z,4.50
2018-02-12T12:10:20.050Z,4.50
2018-02-12T12:12:48.014Z,4.50
2018-02-12T12:15:15.990Z,4.50
2018-02-12T12:17:43.888Z,4.50
2018-02-12T12:20:12.533Z,4.50
2018-02-12T12:22:40.406Z,4.50
2018-02-12T12:25:08.297Z,4.50
2018-02-12T12:27:36.174Z,4.50
2018-02-12T12:30:04.870Z,4.50
2018-02-12T12:32:33.602Z,4.50
2018-02-12T12:35:01.552Z,4.50
2018-02-12T12:37:29.527Z,4.50
2018-02-12T12:39:57.495Z,4.50
2018-02-12T12:42:25.460Z,4.50
2018-02-12T12:44:53.346Z,4.50
2018-02-12T12:47:22.173Z,4.40
2018-02-12T12:49:49.257Z,4.40
2018-02-12T12:52:17.162Z,4.40
2018-02-12T12:54:45.054Z,4.40
2018-02-12T12:57:13.679Z,4.40
2018-02-12T12:59:41.555Z,4.50
2018-02-12T13:02:09.492Z,4.50
2018-02-12T13:04:37.416Z,4.50
2018-02-12T13:07:05.407Z,4.50
2018-02-12T13:09:34.135Z,4.50
2018-02-12T13:12:02.122Z,4.50
2018-02-12T13:14:30.018Z,4.50
2018-02-12T13:16:57.899Z,4.50
2018-02-12T13:19:26.627Z,4.50
2018-02-12T13:21:54.603Z,4.50
2018-02-12T13:24:22.495Z,4.50
2018-02-12T13:26:50.479Z,4.50
2018-02-12T13:29:18.397Z,4.40
2018-02-12T13:31:46.266Z,4.30
2018-02-12T13:34:14.139Z,4.30
2018-02-12T13:36:42.024Z,4.30
2018-02-12T13:39:09.971Z,4.30
2018-02-12T13:41:37.927Z,4.30
2018-02-12T13:44:05.922Z,4.30
2018-02-12T13:46:33.872Z,4.30
2018-02-12T13:49:01.782Z,4.30
2018-02-12T13:51:29.702Z,4.30
2018-02-12T13:53:57.617Z,4.40
2018-02-12T13:56:25.587Z,4.30
2018-02-12T13:58:53.496Z,4.30
2018-02-12T14:01:21.455Z,4.30
2018-02-12T14:03:49.436Z,4.30
2018-02-12T14:06:17.334Z,4.20
2018-02-12T14:08:45.291Z,4.30
2018-02-12T14:11:13.222Z,4.30
2018-02-12T14:13:41.868Z,4.30
2018-02-12T14:16:09.839Z,4.20
2018-02-12T14:18:37.765Z,4.30
2018-02-12T14:21:05.972Z,4.30
2018-02-12T14:23:33.932Z,4.30
2018-02-12T14:26:01.822Z,4.30
2018-02-12T14:28:29.781Z,4.40
2018-02-12T14:30:57.716Z,4.40
2018-02-12T14:33:25.617Z,4.40
2018-02-12T14:35:53.553Z,4.30
2018-02-12T14:38:21.430Z,4.30
2018-02-12T14:40:49.343Z,4.30
2018-02-12T14:43:18.030Z,4.30
2018-02-12T14:45:46.760Z,4.30
2018-02-12T14:48:14.740Z,4.30
2018-02-12T14:50:42.632Z,4.30
2018-02-12T14:53:10.579Z,4.30
2018-02-12T14:55:38.535Z,4.30
2018-02-12T14:58:06.418Z,4.30
2018-02-12T15:00:34.326Z,4.30
2018-02-12T15:03:02.991Z,4.20
2018-02-12T15:05:30.970Z,4.20
2018-02-12T15:07:58.921Z,4.20
2018-02-12T15:10:26.829Z,4.20
2018-02-12T15:12:54.727Z,4.10
2018-02-12T15:15:22.657Z,4.10
2018-02-12T15:17:51.336Z,4.10
2018-02-12T15:20:20.008Z,4.10
2018-02-12T15:22:47.888Z,4.10
2018-02-12T15:25:16.556Z,4.10
2018-02-12T15:27:44.547Z,4.10
2018-02-12T15:30:13.274Z,4.10
2018-02-12T15:32:41.255Z,4.10
2018-02-12T15:35:09.241Z,4.10
2018-02-12T15:37:37.195Z,4.10
2018-02-12T15:40:05.102Z,4.10
2018-02-12T15:42:33.844Z,4.10
2018-02-12T15:45:01.753Z,4.10
2018-02-12T15:47:30.543Z,4.10
2018-02-12T15:49:59.593Z,4.10
2018-02-12T15:52:27.486Z,4.00
2018-02-12T15:54:55.359Z,4.00
2018-02-12T15:57:23.386Z,4.00
2018-02-12T15:59:51.399Z,4.00
2018-02-12T16:02:19.299Z,4.00
2018-02-12T16:04:47.271Z,4.00
2018-02-12T16:07:15.265Z,4.00
2018-02-12T16:09:43.239Z,4.00
2018-02-12T16:12:11.173Z,4.00
2018-02-12T16:14:39.067Z,4.00
2018-02-12T16:17:07.363Z,4.00
2018-02-12T16:19:35.298Z,4.00
2018-02-12T16:22:03.151Z,4.00
2018-02-12T16:24:31.032Z,3.90
2018-02-12T16:26:59.004Z,3.90
2018-02-12T16:29:26.890Z,3.90
2018-02-12T16:31:54.812Z,3.90
2018-02-12T16:34:23.597Z,3.90
2018-02-12T16:36:52.338Z,3.90
2018-02-12T16:39:20.342Z,3.90
2018-02-12T16:41:49.027Z,3.80
2018-02-12T16:44:17.683Z,3.80
2018-02-12T16:46:45.717Z,3.80
2018-02-12T16:49:13.631Z,3.80
2018-02-12T16:51:41.528Z,3.80
2018-02-12T16:54:10.260Z,3.90
2018-02-12T16:56:38.162Z,3.80
2018-02-12T16:59:06.093Z,3.90
2018-02-12T17:01:34.084Z,3.90
2018-02-12T17:04:02.076Z,3.90
2018-02-12T17:06:30.733Z,4.00
2018-02-12T17:08:58.600Z,4.00
2018-02-12T17:11:26.501Z,4.00
2018-02-12T17:13:58.353Z,4.00
2018-02-12T17:16:30.542Z,4.00
2018-02-12T17:19:02.471Z,4.00
2018-02-12T17:21:33.723Z,4.10
2018-02-12T17:24:04.760Z,4.10
2018-02-12T17:26:35.286Z,4.10
2018-02-12T17:29:05.789Z,4.20
2018-02-12T17:31:37.031Z,4.20
2018-02-12T17:34:09.114Z,4.20
2018-02-12T17:36:40.492Z,4.20
2018-02-12T17:39:11.070Z,4.20
2018-02-12T17:41:42.620Z,4.20
2018-02-12T17:44:13.185Z,4.20
2018-02-12T17:46:44.465Z,4.30
2018-02-12T17:49:16.034Z,4.30
2018-02-12T17:51:49.547Z,4.30
2018-02-12T17:54:19.049Z,4.30
2018-02-12T17:56:49.359Z,4.30
2018-02-12T17:59:20.885Z,4.30
2018-02-12T18:01:52.699Z,4.30
2018-02-12T18:04:23.348Z,4.30
2018-02-12T18:06:55.662Z,4.30
2018-02-12T18:09:26.691Z,4.30
2018-02-12T18:11:57.932Z,4.30
2018-02-12T18:14:27.753Z,4.30
2018-02-12T18:16:58.047Z,4.30
2018-02-12T18:19:28.622Z,4.30
2018-02-12T18:21:59.209Z,4.30
2018-02-12T18:24:29.194Z,4.30
2018-02-12T18:26:59.744Z,4.30
2018-02-12T18:29:29.973Z,4.30
2018-02-12T18:31:59.906Z,4.30
2018-02-12T18:34:29.926Z,4.40
2018-02-12T18:37:00.949Z,4.30
2018-02-12T18:39:32.322Z,4.30
2018-02-12T18:42:02.992Z,4.30
2018-02-12T18:44:33.815Z,4.30
2018-02-12T18:47:04.514Z,4.40
2018-02-12T18:49:33.910Z,4.40
2018-02-12T18:52:04.856Z,4.40
2018-02-12T18:54:35.321Z,4.40
2018-02-12T18:57:05.867Z,4.40
2018-02-12T18:59:36.444Z,4.40
2018-02-12T19:02:07.234Z,4.50
2018-02-12T19:04:36.771Z,4.40
2018-02-12T19:07:06.007Z,4.40
2018-02-12T19:09:35.555Z,4.40
2018-02-12T19:12:08.145Z,4.50
2018-02-12T19:14:39.047Z,4.50
2018-02-12T19:17:10.498Z,4.50
2018-02-12T19:19:40.222Z,4.50
2018-02-12T19:22:10.275Z,4.50
2018-02-12T19:24:39.433Z,4.50
2018-02-12T19:27:08.924Z,4.50
2018-02-12T19:29:37.940Z,4.50
2018-02-12T19:32:08.153Z,4.50
2018-02-12T19:34:38.239Z,4.50
2018-02-12T19:37:09.867Z,4.50
2018-02-12T19:39:41.462Z,4.50
2018-02-12T19:42:14.666Z,4.50
2018-02-12T19:44:46.677Z,4.50
2018-02-12T19:47:18.831Z,4.50
2018-02-12T19:49:50.990Z,4.50
2018-02-12T19:52:23.489Z,4.50
2018-02-12T19:54:55.999Z,4.40
2018-02-12T19:57:27.564Z,4.40
2018-02-12T19:59:58.064Z,4.40
2018-02-12T20:02:30.176Z,4.40
2018-02-12T20:04:59.459Z,4.40
2018-02-12T20:07:28.996Z,4.40
2018-02-12T20:09:58.425Z,4.40
2018-02-12T20:12:27.303Z,4.40
2018-02-12T20:15:00.194Z,4.40
2018-02-12T20:17:33.343Z,4.40
2018-02-12T20:20:06.813Z,4.40
2018-02-12T20:22:38.607Z,4.50
2018-02-12T20:25:10.382Z,4.50
2018-02-12T20:27:42.452Z,4.50
2018-02-12T20:30:11.304Z,4.50
2018-02-12T20:32:39.709Z,4.50
2018-02-12T20:35:08.180Z,4.50
2018-02-12T20:37:36.530Z,4.50
2018-02-12T20:40:05.373Z,4.50
2018-02-12T20:42:34.460Z,4.50
2018-02-12T20:45:03.967Z,4.50
2018-02-12T20:47:33.414Z,4.50
2018-02-12T20:50:01.905Z,4.50
2018-02-12T20:52:30.212Z,4.50
2018-02-12T20:54:59.274Z,4.50
2018-02-12T20:57:28.383Z,4.50
2018-02-12T20:59:57.095Z,4.50
2018-02-12T21:02:26.401Z,4.50
2018-02-12T21:04:56.492Z,4.50
2018-02-12T21:07:26.196Z,4.50
2018-02-12T21:09:54.903Z,4.50
2018-02-12T21:12:23.634Z,4.50
2018-02-12T21:14:52.306Z,4.50
2018-02-12T21:17:21.787Z,4.50
2018-02-12T21:19:51.692Z,4.50
2018-02-12T21:22:21.368Z,4.50
2018-02-12T21:24:50.706Z,4.60
2018-02-12T21:27:19.410Z,4.50
2018-02-12T21:29:49.783Z,4.60
2018-02-12T21:32:19.728Z,4.50
2018-02-12T21:34:49.283Z,4.60
2018-02-12T21:37:17.766Z,4.60
2018-02-12T21:39:46.559Z,4.60
2018-02-12T21:42:17.174Z,4.50
2018-02-12T21:44:46.078Z,4.50
2018-02-12T21:47:14.579Z,4.50
2018-02-12T21:49:43.620Z,4.50
2018-02-12T21:52:11.946Z,4.50
2018-02-12T21:54:40.132Z,4.50
2018-02-12T21:57:08.467Z,4.50
2018-02-12T21:59:36.801Z,4.50
2018-02-12T22:02:04.974Z,4.50
2018-02-12T22:04:33.174Z,4.40
2018-02-12T22:07:02.269Z,4.40
2018-02-12T22:09:31.743Z,4.40
2018-02-12T22:12:00.170Z,4.40
2018-02-12T22:14:28.384Z,4.40
2018-02-12T22:16:56.586Z,4.30
2018-02-12T22:19:25.618Z,4.30
2018-02-12T22:21:53.900Z,4.30
2018-02-12T22:24:22.116Z,4.30
2018-02-12T22:26:50.319Z,4.30
2018-02-12T22:29:19.363Z,4.30
2018-02-12T22:31:47.458Z,4.30
2018-02-12T22:34:15.671Z,4.30
2018-02-12T22:36:43.890Z,4.30
2018-02-12T22:39:12.136Z,4.20
2018-02-12T22:41:40.309Z,4.20
2018-02-12T22:44:08.618Z,4.20
2018-02-12T22:46:36.764Z,4.20
2018-02-12T22:49:04.982Z,4.20
2018-02-12T22:51:33.913Z,4.20
2018-02-12T22:54:02.087Z,4.10
2018-02-12T22:56:30.336Z,4.20
2018-02-12T22:58:59.337Z,4.20
2018-02-12T23:01:28.381Z,4.20
2018-02-12T23:03:56.583Z,4.10
2018-02-12T23:06:24.923Z,4.10
2018-02-12T23:08:53.159Z,4.10
2018-02-12T23:11:21.439Z,4.20
2018-02-12T23:13:49.655Z,4.20
2018-02-12T23:16:17.884Z,4.20
2018-02-12T23:18:48.908Z,4.20
2018-02-12T23:21:17.368Z,4.20
2018-02-12T23:23:45.594Z,4.20
2018-02-12T23:26:13.851Z,4.20
2018-02-12T23:28:42.932Z,4.30
2018-02-12T23:31:11.594Z,4.30
2018-02-12T23:33:40.394Z,4.30
2018-02-12T23:36:08.358Z,4.30
2018-02-12T23:38:36.365Z,4.30
2018-02-12T23:41:04.962Z,4.30
2018-02-12T23:43:33.133Z,4.30
2018-02-12T23:46:01.026Z,4.30
2018-02-12T23:48:29.311Z,4.30
2018-02-12T23:50:59.130Z,4.30
2018-02-12T23:53:27.829Z,4.30
2018-02-12T23:55:57.791Z,4.30
2018-02-12T23:58:25.707Z,4.30
